Time;durP1;ratioP1;P1;durP2;ratioP2;P2;SDS_P1;SDS_P2;PMS_P1;PMS_P2;Temp;Humidity;BMP_temperature;BMP_pressure;BME280_temperature;BME280_humidity;BME280_pressure;Samples;Min_cycle;Max_cycle;Signal;HPM_P1;HPM_P2
2021/04/21 00:03:04;;;;;;;39.75;24.53;;;;;;;10.87;60.50;98720.08;262517;1105;115359;-72
2021/04/21 00:08:09;;;;;;;45.48;26.13;;;;;;;10.86;60.94;98717.51;262500;1101;115264;-76
2021/04/21 00:13:12;;;;;;;42.73;25.15;;;;;;;10.86;60.56;98706.86;262554;1105;115551;-73
2021/04/21 00:18:17;;;;;;;43.93;26.78;;;;;;;10.83;60.65;98710.58;262489;1102;115129;-70
2021/04/21 00:23:22;;;;;;;;;;;;;;;10.80;60.51;98712.59;262570;1105;115025;-69
2021/04/21 00:28:30;;;;;;;42.43;24.08;;;;;;;10.74;60.44;98700.58;262608;1102;101837;-69
2021/04/21 00:33:35;;;;;;;43.35;24.63;;;;;;;10.70;60.25;98696.42;262592;1106;115361;-71
2021/04/21 00:38:46;;;;;;;43.15;24.88;;;;;;;10.64;60.79;98692.36;262703;1100;115775;-72
2021/04/21 00:44:17;;;;;;;41.65;24.88;;;;;;;10.61;60.73;98697.89;262485;1105;115042;-72
2021/04/21 00:49:38;;;;;;;44.18;25.70;;;;;;;10.51;60.73;98696.80;262325;1102;115238;-73
2021/04/21 00:55:09;;;;;;;45.75;27.20;;;;;;;10.48;60.89;98694.34;262542;1105;115204;-74
2021/04/21 01:00:24;;;;;;;43.93;26.88;;;;;;;10.53;60.58;98689.59;262763;1101;115198;-72
2021/04/21 01:05:42;;;;;;;52.50;31.20;;;;;;;10.60;61.47;98698.86;261305;1103;115075;-71
2021/04/21 01:10:55;;;;;;;56.05;31.93;;;;;;;10.66;60.94;98694.91;262848;1100;115295;-70
2021/04/21 01:15:59;;;;;;;55.13;31.03;;;;;;;10.63;60.85;98689.78;262571;1105;115250;-71
2021/04/21 01:21:10;;;;;;;56.10;33.05;;;;;;;10.59;61.13;98683.83;262548;1102;115263;-71
2021/04/21 01:26:21;;;;;;;59.53;32.30;;;;;;;10.55;61.40;98686.80;262336;1105;115283;-72
2021/04/21 01:31:42;;;;;;;56.35;32.75;;;;;;;10.44;60.95;98695.52;262528;1105;115079;-71
2021/04/21 01:37:10;;;;;;;57.20;34.30;;;;;;;10.34;61.29;98694.42;262718;1100;115950;-72
2021/04/21 01:42:31;;;;;;;58.85;34.65;;;;;;;10.28;61.68;98700.99;262788;1105;115328;-70
2021/04/21 01:47:35;;;;;;;62.75;35.05;;;;;;;10.26;61.32;98694.06;262578;1100;115362;-70
2021/04/21 01:53:33;;;;;;;58.40;34.05;;;;;;;10.19;61.48;98697.13;262527;1105;115364;-70
2021/04/21 01:59:15;;;;;;;;;;;;;;;10.13;61.22;98702.84;262580;1100;115255;-73
2021/04/21 02:05:00;;;;;;;60.60;36.75;;;;;;;10.13;62.15;98697.52;262561;1102;101683;-76
2021/04/21 02:10:34;;;;;;;65.78;37.10;;;;;;;10.15;61.98;98703.56;262955;1100;115125;-71
2021/04/21 02:16:16;;;;;;;67.40;37.45;;;;;;;10.12;61.91;98711.77;262909;1104;115431;-70
2021/04/21 02:21:38;;;;;;;65.13;38.58;;;;;;;10.03;61.95;98696.41;262547;1102;115141;-72
2021/04/21 02:26:59;;;;;;;62.80;37.53;;;;;;;9.97;62.15;98699.47;262746;1104;114903;-70
2021/04/21 02:32:37;;;;;;;66.03;38.25;;;;;;;9.93;62.21;98692.65;262531;1102;115160;-69
2021/04/21 02:38:07;;;;;;;60.68;37.03;;;;;;;9.86;61.94;98692.19;262482;1105;115043;-73
2021/04/21 02:44:27;;;;;;;64.78;38.68;;;;;;;9.84;62.64;98690.58;262689;1105;115434;-73
2021/04/21 02:49:47;;;;;;;63.93;36.65;;;;;;;9.83;62.68;98688.88;262474;1100;115196;-73
2021/04/21 02:55:25;;;;;;;68.58;37.48;;;;;;;9.86;62.85;98684.22;262652;1104;115935;-72
2021/04/21 03:00:49;;;;;;;64.08;37.53;;;;;;;9.90;62.76;98683.06;262597;1101;115157;-72
2021/04/21 03:06:08;;;;;;;62.63;36.58;;;;;;;9.94;62.64;98686.38;262720;1105;114711;-74
2021/04/21 03:11:30;;;;;;;62.70;37.18;;;;;;;9.95;63.23;98685.41;263069;1100;116881;-70
2021/04/21 03:16:45;;;;;;;59.83;35.08;;;;;;;9.99;63.12;98686.09;262588;1104;115701;-70
2021/04/21 03:22:00;;;;;;;55.08;34.75;;;;;;;9.98;62.81;98679.89;262597;1100;115673;-70
2021/04/21 03:27:09;;;;;;;59.53;35.23;;;;;;;9.97;62.85;98672.89;262733;1104;116023;-68
2021/04/21 03:32:28;;;;;;;55.05;35.65;;;;;;;9.97;62.91;98691.49;262516;1101;115766;-69
2021/04/21 03:37:46;;;;;;;55.95;35.28;;;;;;;9.95;62.85;98680.09;262548;1104;115030;-69
2021/04/21 03:42:50;;;;;;;52.30;34.00;;;;;;;9.90;62.87;98684.88;262521;1101;115641;-68
2021/04/21 03:47:59;;;;;;;56.85;34.48;;;;;;;9.88;62.69;98690.30;262639;1102;115525;-72
2021/04/21 03:53:14;;;;;;;56.50;33.68;;;;;;;9.89;63.03;98689.34;262453;1102;115425;-71
2021/04/21 03:58:28;;;;;;;53.05;34.43;;;;;;;9.94;63.07;98691.69;262481;1105;115507;-71
2021/04/21 04:03:40;;;;;;;52.88;34.25;;;;;;;9.94;63.05;98689.88;262913;1100;115056;-72
2021/04/21 04:08:49;;;;;;;50.03;33.28;;;;;;;10.02;63.16;98699.16;262476;1105;115551;-67
2021/04/21 04:13:58;;;;;;;55.58;34.55;;;;;;;10.04;62.95;98692.80;262490;1100;116332;-69
2021/04/21 04:19:07;;;;;;;57.43;35.63;;;;;;;10.11;62.96;98691.44;262621;1105;115332;-68
2021/04/21 04:24:14;;;;;;;52.38;33.38;;;;;;;10.13;63.30;98692.20;262842;1100;117979;-67
2021/04/21 04:29:21;;;;;;;52.85;31.58;;;;;;;10.13;62.90;98696.67;262788;1104;115369;-67
2021/04/21 04:34:28;;;;;;;47.25;31.25;;;;;;;10.12;63.00;98701.14;262663;1100;115127;-71
2021/04/21 04:39:52;;;;;;;50.75;32.33;;;;;;;10.09;62.82;98706.66;262433;1105;115465;-69
2021/04/21 04:44:55;;;;;;;50.28;32.23;;;;;;;10.09;62.96;98703.15;262591;1103;115083;-68
2021/04/21 04:50:10;;;;;;;50.73;33.28;;;;;;;10.07;62.74;98707.70;263282;1104;115397;-70
2021/04/21 04:55:14;;;;;;;;;;;;;;;10.11;63.21;98719.83;262703;1100;115919;-68
2021/04/21 05:00:22;;;;;;;46.95;30.80;;;;;;;10.19;63.32;98721.05;262632;1104;101589;-68
2021/04/21 05:05:27;;;;;;;53.83;34.70;;;;;;;10.22;62.92;98727.95;262664;1100;114957;-67
2021/04/21 05:10:53;;;;;;;52.08;33.43;;;;;;;10.27;62.94;98725.89;262923;1104;115207;-70
2021/04/21 05:15:56;;;;;;;50.20;32.73;;;;;;;10.22;62.74;98732.42;262439;1101;115648;-70
2021/04/21 05:21:35;;;;;;;55.45;34.43;;;;;;;10.19;63.02;98733.50;262514;1104;115472;-71
2021/04/21 05:26:56;;;;;;;57.95;35.75;;;;;;;10.08;63.15;98731.52;262800;1101;115226;-70
2021/04/21 05:32:43;;;;;;;56.58;35.03;;;;;;;10.09;62.95;98735.05;262559;1104;115560;-70
2021/04/21 05:38:42;;;;;;;56.70;34.88;;;;;;;10.09;62.87;98746.53;262665;1100;117755;-68
2021/04/21 05:44:06;;;;;;;57.08;34.05;;;;;;;10.12;63.13;98742.80;262414;1100;115423;-70
2021/04/21 05:49:13;;;;;;;57.40;32.78;;;;;;;10.15;62.81;98748.77;262945;1104;115217;-69
2021/04/21 05:54:53;;;;;;;53.55;32.63;;;;;;;10.24;62.70;98749.99;262774;1100;115475;-70
2021/04/21 06:00:23;;;;;;;53.85;31.95;;;;;;;10.40;63.18;98749.89;262732;1104;115712;-71
2021/04/21 06:05:26;;;;;;;57.18;31.78;;;;;;;10.55;63.10;98746.19;263216;1100;115402;-69
2021/04/21 06:10:30;;;;;;;52.28;31.65;;;;;;;10.71;63.27;98747.84;263209;1104;115377;-68
2021/04/21 06:15:40;;;;;;;45.95;30.13;;;;;;;10.81;62.79;98746.27;262537;1102;115669;-70
2021/04/21 06:20:44;;;;;;;45.63;30.57;;;;;;;10.92;62.60;98751.70;262617;1105;115088;-68
2021/04/21 06:25:59;;;;;;;46.70;28.58;;;;;;;11.04;62.16;98748.22;262513;1100;115504;-71
2021/04/21 06:31:08;;;;;;;48.25;29.90;;;;;;;11.17;61.76;98744.69;262974;1104;115555;-71
2021/04/21 06:36:15;;;;;;;48.40;29.73;;;;;;;11.29;62.48;98738.52;262495;1101;115668;-68
2021/04/21 06:41:23;;;;;;;54.40;29.90;;;;;;;11.40;61.92;98738.61;262601;1105;115150;-69
2021/04/21 06:46:26;;;;;;;45.55;26.35;;;;;;;11.54;61.84;98738.48;262536;1100;115306;-68
2021/04/21 06:51:32;;;;;;;43.38;24.50;;;;;;;11.71;61.34;98741.77;262406;1105;115210;-70
2021/04/21 06:56:36;;;;;;;34.98;22.23;;;;;;;11.81;61.48;98735.66;262507;1101;115277;-66
2021/04/21 07:01:47;;;;;;;30.40;20.20;;;;;;;11.85;60.35;98744.32;262664;1104;115607;-69
2021/04/21 07:06:50;;;;;;;34.27;21.87;;;;;;;11.81;60.59;98746.33;262765;1100;115497;-67
2021/04/21 07:12:01;;;;;;;39.78;23.28;;;;;;;11.80;60.38;98754.45;262566;1104;115943;-67
2021/04/21 07:17:04;;;;;;;34.48;23.10;;;;;;;11.80;60.42;98751.78;262889;1100;115242;-67
2021/04/21 07:22:11;;;;;;;33.90;20.73;;;;;;;11.79;60.07;98753.60;262583;1105;115372;-69
2021/04/21 07:27:14;;;;;;;35.45;22.73;;;;;;;11.81;60.14;98748.99;262512;1100;115709;-71
2021/04/21 07:32:23;;;;;;;32.33;22.25;;;;;;;11.88;59.93;98748.59;262761;1100;115280;-67
2021/04/21 07:37:44;;;;;;;34.95;21.20;;;;;;;11.94;60.49;98754.34;262550;1101;115098;-68
2021/04/21 07:42:46;;;;;;;27.60;20.23;;;;;;;12.06;59.85;98750.80;262704;1104;115369;-68
2021/04/21 07:47:49;;;;;;;34.30;21.75;;;;;;;12.19;60.00;98757.88;262701;1101;116719;-67
2021/04/21 07:53:01;;;;;;;26.95;19.00;;;;;;;12.34;59.74;98747.92;262832;1104;115077;-68
2021/04/21 07:58:04;;;;;;;31.13;20.73;;;;;;;12.54;59.79;98744.62;263018;1100;115453;-69
2021/04/21 08:03:25;;;;;;;32.43;17.80;;;;;;;12.69;60.21;98750.61;262717;1100;115334;-69
2021/04/21 08:08:32;;;;;;;29.30;18.00;;;;;;;12.79;59.49;98744.45;262478;1100;115053;-68
2021/04/21 08:13:42;;;;;;;28.08;17.43;;;;;;;12.89;59.27;98741.94;262573;1105;115313;-70
2021/04/21 08:18:46;;;;;;;26.98;17.00;;;;;;;12.96;58.67;98753.01;262744;1100;115464;-67
2021/04/21 08:23:59;;;;;;;24.33;14.85;;;;;;;13.08;58.14;98746.73;263434;1104;115716;-68
2021/04/21 08:29:03;;;;;;;20.80;14.58;;;;;;;13.21;58.82;98749.29;262543;1101;115149;-68
2021/04/21 08:34:06;;;;;;;22.00;15.08;;;;;;;13.33;58.18;98760.90;262758;1100;115592;-68
2021/04/21 08:39:09;;;;;;;22.75;13.65;;;;;;;13.34;57.29;98757.25;262935;1099;116565;-67
2021/04/21 08:44:12;;;;;;;22.78;14.75;;;;;;;13.34;57.70;98760.77;263423;1104;115575;-68
2021/04/21 08:49:28;;;;;;;;;;;;;;;;;;;;;
2021/04/21 08:54:56;;;;;;;23.80;15.00;;;;;;;13.25;56.91;98765.02;263194;1104;114957;-65
2021/04/21 09:00:01;;;;;;;20.15;13.25;;;;;;;13.27;56.43;98764.04;263525;1099;115162;-65
2021/04/21 09:05:05;;;;;;;21.55;14.88;;;;;;;13.28;57.25;98758.59;262955;1104;115330;-65
2021/04/21 09:10:15;;;;;;;23.18;16.35;;;;;;;13.33;56.82;98764.41;262751;1101;115184;-66
2021/04/21 09:15:23;;;;;;;27.30;16.68;;;;;;;13.36;56.88;98764.18;263331;1104;115171;-65
2021/04/21 09:20:27;;;;;;;26.13;16.55;;;;;;;13.43;56.61;98765.41;263438;1099;115061;-65
2021/04/21 09:25:48;;;;;;;24.40;15.75;;;;;;;13.47;56.63;98753.48;263488;1104;114877;-65
2021/04/21 09:30:56;;;;;;;26.90;15.83;;;;;;;13.48;56.21;98755.22;263041;1102;114963;-65
2021/04/21 09:36:03;;;;;;;27.13;16.10;;;;;;;13.48;56.24;98746.31;263041;1104;115643;-65
2021/04/21 09:41:18;;;;;;;40.95;26.93;;;;;;;13.51;57.41;98743.41;263333;1099;115175;-66
2021/04/21 09:46:38;;;;;;;29.78;20.13;;;;;;;13.85;57.25;98736.22;263400;1104;115321;-68
2021/04/21 09:51:44;;;;;;;28.48;19.33;;;;;;;14.10;57.19;98739.61;263053;1100;115253;-68
2021/04/21 09:56:47;;;;;;;32.68;22.80;;;;;;;14.43;56.96;98727.94;263091;1104;114914;-68
2021/04/21 10:01:52;;;;;;;28.08;19.98;;;;;;;15.01;57.20;98719.54;262812;1099;115174;-67
2021/04/21 10:07:02;;;;;;;30.33;21.93;;;;;;;15.47;56.78;98700.33;263466;1104;115275;-68
2021/04/21 10:12:17;;;;;;;20.83;16.15;;;;;;;15.85;55.97;98699.65;263366;1099;115254;-67
2021/04/21 10:17:35;;;;;;;15.03;10.35;;;;;;;15.95;54.31;98680.05;262920;1100;115278;-67
2021/04/21 10:22:47;;;;;;;20.78;12.00;;;;;;;16.11;53.98;98684.89;262914;1100;114675;-67
2021/04/21 10:27:54;;;;;;;19.10;11.33;;;;;;;16.23;53.56;98681.08;262859;1105;114639;-66
2021/04/21 10:33:00;;;;;;;18.23;13.90;;;;;;;16.35;53.59;98676.44;263039;1100;115056;-66
2021/04/21 10:38:03;;;;;;;16.25;11.48;;;;;;;16.35;53.06;98668.38;263067;1104;115472;-67
2021/04/21 10:43:11;;;;;;;19.18;11.65;;;;;;;16.44;52.85;98652.27;263247;1099;115359;-66
2021/04/21 10:48:40;;;;;;;15.80;12.33;;;;;;;16.51;52.45;98653.40;263385;1104;115466;-66
2021/04/21 10:54:00;;;;;;;19.13;12.28;;;;;;;16.39;52.24;98649.14;263113;1101;115535;-66
2021/04/21 10:59:07;;;;;;;12.50;8.73;;;;;;;16.35;51.83;98639.68;263418;1104;114898;-66
2021/04/21 11:05:03;;;;;;;14.00;8.45;;;;;;;16.24;51.52;98640.67;262950;1100;115386;-65
2021/04/21 11:10:34;;;;;;;8.88;6.48;;;;;;;16.40;51.74;98639.25;263353;1099;114977;-67
2021/04/21 11:15:49;;;;;;;8.45;6.10;;;;;;;16.67;51.46;98620.55;263401;1104;114655;-67
2021/04/21 11:21:07;;;;;;;9.03;6.50;;;;;;;16.88;51.04;98615.05;263044;1100;115355;-67
2021/04/21 11:26:23;;;;;;;12.83;6.70;;;;;;;17.13;50.61;98618.08;262561;1107;114763;-67
2021/04/21 11:31:44;;;;;;;15.70;7.03;;;;;;;17.26;49.65;98603.30;262785;1099;115149;-67
2021/04/21 11:37:10;;;;;;;9.40;6.68;;;;;;;17.43;49.36;98603.52;262393;1106;115305;-67
2021/04/21 11:42:44;;;;;;;9.20;6.53;;;;;;;17.48;49.08;98583.22;262780;1101;115039;-66
2021/04/21 11:48:16;;;;;;;10.45;6.40;;;;;;;17.46;48.99;98587.92;262858;1104;115856;-66
2021/04/21 11:53:25;;;;;;;12.35;6.23;;;;;;;17.75;49.18;98592.27;263003;1100;115934;-65
2021/04/21 11:58:30;;;;;;;;;;;;;;;17.95;48.47;98599.25;262997;1104;115430;-68
2021/04/21 12:03:46;;;;;;;7.55;5.53;;;;;;;17.71;47.53;98597.11;262833;1100;101635;-66
2021/04/21 12:09:00;;;;;;;9.53;3.60;;;;;;;17.62;47.71;98599.86;262827;1102;114658;-67
2021/04/21 12:14:27;;;;;;;;;;;;;;;;;;;;;
2021/04/21 12:19:30;;;;;;;6.78;4.75;;;;;;;17.73;47.84;98588.91;263079;1102;114871;-67
2021/04/21 12:24:40;;;;;;;9.08;4.88;;;;;;;18.15;47.93;98581.09;263339;1099;114982;-68
2021/04/21 12:29:47;;;;;;;6.45;4.95;;;;;;;18.46;47.91;98587.92;263344;1104;114945;-67
2021/04/21 12:35:01;;;;;;;9.80;6.00;;;;;;;18.55;47.15;98557.34;263000;1100;114892;-67
2021/04/21 12:40:36;;;;;;;11.83;6.10;;;;;;;18.37;47.16;98557.36;263376;1104;115317;-67
2021/04/21 12:45:44;;;;;;;11.63;6.10;;;;;;;18.22;47.12;98551.70;262674;1101;115142;-68
2021/04/21 12:50:48;;;;;;;9.58;6.03;;;;;;;18.53;46.92;98540.48;262800;1104;114816;-69
2021/04/21 12:56:14;;;;;;;7.53;5.83;;;;;;;18.71;47.06;98526.94;262928;1100;114563;-67
2021/04/21 13:01:23;;;;;;;7.08;6.20;;;;;;;18.96;46.56;98526.11;263175;1104;115071;-68
2021/04/21 13:06:49;;;;;;;11.37;6.17;;;;;;;18.96;46.00;98519.88;262502;1102;115163;-68
2021/04/21 13:12:10;;;;;;;7.70;5.88;;;;;;;18.73;45.55;98525.81;262980;1098;115104;-68
2021/04/21 13:17:25;;;;;;;9.53;5.90;;;;;;;18.61;45.34;98514.44;262935;1102;115145;-67
2021/04/21 13:22:48;;;;;;;10.07;6.23;;;;;;;18.97;45.38;98502.69;263165;1100;114792;-67
2021/04/21 13:27:56;;;;;;;9.90;6.13;;;;;;;19.48;45.45;98500.84;263082;1101;115103;-67
2021/04/21 13:33:04;;;;;;;9.00;6.65;;;;;;;19.95;44.70;98508.38;263061;1100;114691;-67
2021/04/21 13:38:14;;;;;;;11.75;6.70;;;;;;;20.02;43.96;98499.42;262635;1102;114686;-67
2021/04/21 13:43:23;;;;;;;12.03;6.58;;;;;;;19.82;42.78;98500.77;263348;1100;115359;-67
2021/04/21 13:48:32;;;;;;;8.95;6.30;;;;;;;19.32;42.72;98518.66;262645;1105;115369;-67
2021/04/21 13:53:41;;;;;;;9.53;6.25;;;;;;;18.78;43.21;98536.11;263220;1099;114666;-67
2021/04/21 13:58:49;;;;;;;11.80;5.75;;;;;;;18.42;44.02;98541.59;262333;1104;114861;-66
2021/04/21 14:03:55;;;;;;;8.70;6.38;;;;;;;18.05;45.20;98555.25;262621;1100;115298;-69
2021/04/21 14:09:04;;;;;;;11.00;6.35;;;;;;;17.71;45.88;98570.20;262376;1104;114937;-69
2021/04/21 14:14:20;;;;;;;11.70;6.58;;;;;;;17.16;45.73;98575.61;262931;1099;115114;-66
2021/04/21 14:19:34;;;;;;;8.60;5.78;;;;;;;16.83;46.88;98573.47;263454;1104;115627;-66
2021/04/21 14:24:37;;;;;;;9.80;6.55;;;;;;;16.55;46.71;98579.58;263284;1099;114982;-66
2021/04/21 14:29:40;;;;;;;10.00;6.18;;;;;;;16.35;47.08;98569.02;263342;1104;114969;-66
2021/04/21 14:34:45;;;;;;;9.33;5.93;;;;;;;16.20;46.96;98576.64;263359;1099;114834;-66
2021/04/21 14:39:52;;;;;;;7.80;5.78;;;;;;;16.04;47.04;98575.39;262916;1104;115562;-65
2021/04/21 14:44:56;;;;;;;10.35;5.13;;;;;;;15.96;47.08;98599.38;263153;1099;115035;-65
2021/04/21 14:49:59;;;;;;;9.43;5.88;;;;;;;15.88;46.95;98603.77;263209;1104;115083;-66
2021/04/21 14:55:05;;;;;;;9.63;5.88;;;;;;;15.72;47.18;98621.23;263145;1099;115587;-66
2021/04/21 15:00:09;;;;;;;6.45;5.65;;;;;;;15.50;47.17;98634.86;263415;1104;114984;-66
2021/04/21 15:05:12;;;;;;;9.10;6.28;;;;;;;15.29;47.82;98627.73;263180;1099;115013;-66
2021/04/21 15:10:17;;;;;;;10.93;6.55;;;;;;;15.10;48.36;98627.63;263416;1104;114560;-66
2021/04/21 15:15:21;;;;;;;9.18;5.88;;;;;;;14.82;48.69;98634.55;263438;1097;114952;-66
2021/04/21 15:20:25;;;;;;;11.45;5.75;;;;;;;14.54;48.52;98628.87;263461;1104;115096;-66
2021/04/21 15:25:30;;;;;;;7.53;6.05;;;;;;;14.32;49.74;98621.75;263232;1099;115461;-67
2021/04/21 15:30:33;;;;;;;10.48;6.90;;;;;;;14.17;49.97;98612.35;263453;1104;115653;-67
2021/04/21 15:35:36;;;;;;;9.18;6.48;;;;;;;14.11;50.55;98599.48;262977;1098;115121;-66
2021/04/21 15:40:43;;;;;;;11.73;6.20;;;;;;;14.05;50.42;98600.83;263431;1104;115488;-66
2021/04/21 15:45:47;;;;;;;8.88;6.10;;;;;;;14.08;50.26;98608.60;263156;1099;114977;-66
2021/04/21 15:50:50;;;;;;;9.65;6.35;;;;;;;14.09;50.77;98596.91;263444;1104;114687;-65
2021/04/21 15:55:55;;;;;;;9.35;6.65;;;;;;;14.15;50.78;98595.56;262959;1099;114969;-66
2021/04/21 16:01:06;;;;;;;11.93;5.83;;;;;;;14.20;51.03;98599.56;262886;1104;116419;-65
2021/04/21 16:06:09;;;;;;;10.63;5.67;;;;;;;14.28;50.41;98598.06;263341;1099;115006;-66
2021/04/21 16:11:15;;;;;;;13.80;5.20;;;;;;;14.35;50.86;98599.23;263004;1104;115231;-66
2021/04/21 16:16:20;;;;;;;15.93;5.28;;;;;;;14.39;50.11;98593.48;263077;1099;115331;-66
2021/04/21 16:21:23;;;;;;;12.23;4.83;;;;;;;14.42;49.94;98595.06;263111;1104;115442;-66
2021/04/21 16:26:26;;;;;;;11.33;4.90;;;;;;;14.47;49.59;98608.05;263414;1099;114964;-66
2021/04/21 16:31:33;;;;;;;12.05;4.85;;;;;;;14.48;49.70;98607.09;263178;1104;115245;-67
2021/04/21 16:36:42;;;;;;;8.80;4.90;;;;;;;14.46;49.83;98596.49;263018;1100;115046;-67
2021/04/21 16:41:49;;;;;;;9.43;4.80;;;;;;;14.45;49.57;98602.83;263155;1104;115241;-66
2021/04/21 16:46:53;;;;;;;11.20;5.30;;;;;;;14.44;49.59;98604.67;263378;1099;115250;-66
2021/04/21 16:51:57;;;;;;;18.05;5.28;;;;;;;14.47;49.24;98605.36;263100;1104;114990;-67
2021/04/21 16:57:02;;;;;;;14.53;6.13;;;;;;;14.43;49.07;98613.69;263425;1099;114810;-66
2021/04/21 17:02:11;;;;;;;9.15;5.35;;;;;;;14.41;49.39;98623.66;262808;1104;115085;-66
2021/04/21 17:07:20;;;;;;;11.15;6.40;;;;;;;14.39;49.61;98628.29;262630;1101;117731;-65
2021/04/21 17:12:23;;;;;;;12.40;6.20;;;;;;;14.37;49.40;98632.09;262739;1105;115295;-65
2021/04/21 17:17:25;;;;;;;11.60;5.65;;;;;;;14.32;49.25;98634.30;262258;1100;115001;-66
2021/04/21 17:22:29;;;;;;;9.00;5.75;;;;;;;14.28;49.80;98646.24;263017;1104;114947;-66
2021/04/21 17:27:33;;;;;;;11.58;6.33;;;;;;;14.26;49.64;98643.67;262621;1100;115060;-66
2021/04/21 17:32:38;;;;;;;11.13;6.80;;;;;;;14.24;49.97;98644.80;262451;1105;115233;-66
2021/04/21 17:37:49;;;;;;;16.48;7.68;;;;;;;14.15;49.56;98647.25;262469;1100;115196;-66
2021/04/21 17:43:22;;;;;;;14.05;8.25;;;;;;;14.08;50.11;98643.39;262549;1104;115584;-65
2021/04/21 17:48:30;;;;;;;11.95;8.43;;;;;;;14.03;50.53;98650.96;262559;1098;115196;-65
2021/04/21 17:53:33;;;;;;;16.35;8.68;;;;;;;13.98;50.08;98645.13;262521;1105;115925;-65
2021/04/21 17:58:37;;;;;;;14.70;9.30;;;;;;;13.96;50.40;98652.45;262545;1100;116918;-65
2021/04/21 18:03:42;;;;;;;19.50;9.50;;;;;;;13.92;50.34;98649.14;262714;1100;115114;-65
2021/04/21 18:08:44;;;;;;;17.80;9.87;;;;;;;13.87;51.03;98648.69;262635;1100;115507;-65
2021/04/21 18:13:48;;;;;;;16.25;9.93;;;;;;;13.86;51.15;98656.85;262577;1105;115428;-65
2021/04/21 18:18:55;;;;;;;14.25;9.90;;;;;;;13.83;50.98;98657.94;262521;1100;116047;-65
2021/04/21 18:23:58;;;;;;;20.63;10.55;;;;;;;13.84;50.71;98661.46;262452;1105;115521;-66
2021/04/21 18:29:03;;;;;;;18.63;10.75;;;;;;;13.82;50.79;98666.07;262550;1099;116670;-66
2021/04/21 18:34:10;;;;;;;17.38;10.60;;;;;;;13.77;50.98;98660.27;262459;1105;115273;-66
2021/04/21 18:39:20;;;;;;;16.30;10.18;;;;;;;13.73;50.95;98667.69;262379;1100;115157;-66
2021/04/21 18:44:27;;;;;;;19.75;10.33;;;;;;;13.71;51.60;98677.65;262551;1102;115140;-66
2021/04/21 18:49:35;;;;;;;18.27;10.53;;;;;;;13.68;51.88;98678.73;262424;1100;115508;-66
2021/04/21 18:54:41;;;;;;;19.25;11.23;;;;;;;13.64;51.79;98689.81;262787;1104;115296;-66
2021/04/21 18:59:46;;;;;;;25.88;12.53;;;;;;;13.60;52.24;98686.53;262390;1100;115525;-66
2021/04/21 19:04:56;;;;;;;26.63;12.78;;;;;;;13.55;52.03;98685.20;262420;1100;115788;-68
2021/04/21 19:10:15;;;;;;;25.63;13.13;;;;;;;13.47;52.75;98689.33;262512;1100;115215;-66
2021/04/21 19:15:46;;;;;;;26.80;13.23;;;;;;;13.42;53.01;98691.53;262416;1105;115592;-66
2021/04/21 19:21:13;;;;;;;27.65;13.33;;;;;;;13.36;52.51;98692.02;262474;1101;115310;-66
2021/04/21 19:26:35;;;;;;;26.05;13.48;;;;;;;13.32;53.18;98693.23;262417;1105;115333;-67
2021/04/21 19:31:45;;;;;;;27.73;13.55;;;;;;;13.31;52.60;98688.84;262380;1102;115284;-67
2021/04/21 19:37:06;;;;;;;24.05;13.23;;;;;;;13.22;53.00;98690.40;262549;1105;115344;-66
2021/04/21 19:42:13;;;;;;;26.50;14.13;;;;;;;13.15;53.44;98688.34;262641;1100;115531;-66
2021/04/21 19:47:48;;;;;;;27.03;14.38;;;;;;;13.09;53.29;98689.66;262697;1104;116187;-66
2021/04/21 19:53:09;;;;;;;28.35;15.05;;;;;;;13.06;54.09;98694.39;262931;1100;115423;-67
2021/04/21 19:58:30;;;;;;;32.95;15.40;;;;;;;12.98;54.47;98695.84;262917;1104;115301;-66
2021/04/21 20:03:58;;;;;;;34.08;17.48;;;;;;;12.90;53.36;98692.89;262449;1101;115034;-67
2021/04/21 20:09:27;;;;;;;36.50;19.90;;;;;;;12.90;54.00;98700.05;262591;1105;115338;-66
2021/04/21 20:14:35;;;;;;;30.65;19.23;;;;;;;12.92;54.34;98701.65;262473;1101;115377;-66
2021/04/21 20:19:51;;;;;;;31.88;19.98;;;;;;;12.87;54.39;98702.95;262369;1102;115206;-66
2021/04/21 20:25:02;;;;;;;33.08;21.43;;;;;;;12.85;54.92;98705.76;262759;1100;115029;-66
2021/04/21 20:30:22;;;;;;;;;;;;;;;;;;;;;
2021/04/21 20:35:29;;;;;;;38.95;22.78;;;;;;;12.75;55.02;98713.63;262567;1104;115479;-66
2021/04/21 20:40:42;;;;;;;34.90;21.15;;;;;;;12.70;54.92;98714.92;262422;1105;115154;-66
2021/04/21 20:46:23;;;;;;;33.08;21.90;;;;;;;12.66;54.95;98714.31;262671;1105;117786;-68
2021/04/21 20:52:14;;;;;;;33.83;20.93;;;;;;;12.64;54.97;98710.08;261489;1103;115731;-66
2021/04/21 20:57:36;;;;;;;37.28;21.90;;;;;;;12.61;54.68;98710.31;262778;1102;115510;-66
2021/04/21 21:02:52;;;;;;;27.75;18.03;;;;;;;12.54;54.62;98700.09;262784;1100;115441;-66
2021/04/21 21:08:14;;;;;;;25.23;15.83;;;;;;;12.51;55.25;98699.47;262726;1104;115161;-68
2021/04/21 21:13:41;;;;;;;23.73;13.45;;;;;;;12.48;54.61;98689.87;262560;1100;115690;-67
2021/04/21 21:19:28;;;;;;;23.65;13.10;;;;;;;12.47;55.22;98685.50;262475;1104;115648;-65
2021/04/21 21:24:50;;;;;;;21.80;12.80;;;;;;;12.45;55.10;98686.58;262628;1100;115438;-69
2021/04/21 21:30:00;;;;;;;21.00;13.27;;;;;;;12.46;55.43;98685.60;262803;1104;115315;-69
2021/04/21 21:35:23;;;;;;;;;;;;;;;;;;;;;
2021/04/21 21:40:46;;;;;;;19.78;12.40;;;;;;;12.54;55.69;98685.89;262604;1105;116011;-64
2021/04/21 21:46:00;;;;;;;18.55;12.75;;;;;;;12.60;55.56;98679.22;262960;1104;115625;-67
2021/04/21 21:51:15;;;;;;;19.10;12.70;;;;;;;12.57;55.70;98674.11;262484;1105;115710;-69
2021/04/21 21:56:20;;;;;;;20.48;12.78;;;;;;;12.55;55.22;98685.77;262416;1101;115801;-69
2021/04/21 22:01:31;;;;;;;19.23;12.63;;;;;;;12.52;55.80;98690.48;262632;1105;115302;-66
2021/04/21 22:06:37;;;;;;;18.20;12.23;;;;;;;12.52;55.56;98699.34;262537;1101;115348;-65
2021/04/21 22:11:41;;;;;;;17.30;11.70;;;;;;;12.50;55.90;98695.95;262681;1104;115249;-65
2021/04/21 22:16:44;;;;;;;16.10;11.13;;;;;;;12.48;55.57;98695.20;262579;1101;115080;-65
2021/04/21 22:21:47;;;;;;;18.00;11.78;;;;;;;12.45;55.24;98705.27;262723;1104;115243;-65
2021/04/21 22:26:50;;;;;;;20.95;11.88;;;;;;;12.39;55.81;98703.89;262511;1101;115246;-64
2021/04/21 22:31:53;;;;;;;16.43;11.68;;;;;;;12.34;55.51;98700.73;263002;1104;115635;-64
2021/04/21 22:36:56;;;;;;;18.00;11.95;;;;;;;12.30;56.07;98696.59;262410;1101;115011;-64
2021/04/21 22:42:00;;;;;;;19.03;12.43;;;;;;;12.27;55.91;98694.16;262455;1105;115190;-64
2021/04/21 22:47:02;;;;;;;20.65;11.70;;;;;;;12.26;56.21;98698.64;262400;1100;115129;-64
2021/04/21 22:52:05;;;;;;;16.38;11.75;;;;;;;12.24;56.14;98705.05;262603;1104;115416;-64
2021/04/21 22:57:08;;;;;;;17.20;12.65;;;;;;;12.21;56.64;98700.78;262525;1102;115506;-65
2021/04/21 23:02:11;;;;;;;21.68;13.20;;;;;;;12.22;56.70;98704.30;262652;1105;115411;-65
2021/04/21 23:07:14;;;;;;;19.40;13.00;;;;;;;12.20;56.26;98701.77;262488;1102;115453;-63
2021/04/21 23:12:17;;;;;;;20.13;13.93;;;;;;;12.20;56.17;98696.42;262476;1105;115174;-65
2021/04/21 23:17:20;;;;;;;18.05;12.30;;;;;;;12.19;56.51;98693.86;262553;1101;115527;-64
2021/04/21 23:22:23;;;;;;;20.00;12.60;;;;;;;12.17;56.39;98690.47;262587;1104;115438;-65
2021/04/21 23:27:26;;;;;;;21.28;13.95;;;;;;;12.15;56.43;98695.90;262412;1100;117114;-64
2021/04/21 23:32:29;;;;;;;22.48;15.43;;;;;;;12.14;57.19;98686.20;262498;1105;115812;-66
2021/04/21 23:37:39;;;;;;;30.15;17.15;;;;;;;12.14;56.92;98685.36;262322;1100;116143;-66
2021/04/21 23:42:46;;;;;;;30.95;19.10;;;;;;;12.11;56.91;98690.91;262687;1105;115549;-67
2021/04/21 23:47:50;;;;;;;40.85;20.50;;;;;;;12.05;57.51;98685.05;262839;1099;115170;-67